sensor_id;sensor_type;location;lat;lon;timestamp;P1;durP1;ratioP1;P2;durP2;ratioP2
49378;SDS011;35254;47.990;-1.608;2023-05-10T00:00:52;5.65;;;1.33;;
49378;SDS011;35254;47.990;-1.608;2023-05-10T00:03:18;2.55;;;1.10;;
49378;SDS011;35254;47.990;-1.608;2023-05-10T00:05:44;2.13;;;0.80;;
49378;SDS011;35254;47.990;-1.608;2023-05-10T00:08:09;5.60;;;1.30;;
49378;SDS011;35254;47.990;-1.608;2023-05-10T00:10:35;2.13;;;0.95;;
49378;SDS011;35254;47.990;-1.608;2023-05-10T00:13:02;3.30;;;1.50;;
49378;SDS011;35254;47.990;-1.608;2023-05-10T00:15:28;3.03;;;1.00;;
49378;SDS011;35254;47.990;-1.608;2023-05-10T00:17:55;3.90;;;1.05;;
49378;SDS011;35254;47.990;-1.608;2023-05-10T00:20:21;3.47;;;0.95;;
49378;SDS011;35254;47.990;-1.608;2023-05-10T00:22:47;3.03;;;0.95;;
49378;SDS011;35254;47.990;-1.608;2023-05-10T00:25:12;2.60;;;0.90;;
49378;SDS011;35254;47.990;-1.608;2023-05-10T00:27:38;3.75;;;1.20;;
49378;SDS011;35254;47.990;-1.608;2023-05-10T00:30:04;3.33;;;0.90;;
49378;SDS011;35254;47.990;-1.608;2023-05-10T00:32:31;3.67;;;1.08;;
49378;SDS011;35254;47.990;-1.608;2023-05-10T00:34:56;3.53;;;0.90;;
49378;SDS011;35254;47.990;-1.608;2023-05-10T00:37:22;10.23;;;1.10;;
49378;SDS011;35254;47.990;-1.608;2023-05-10T00:39:48;5.13;;;1.38;;
49378;SDS011;35254;47.990;-1.608;2023-05-10T00:42:13;3.22;;;1.17;;
49378;SDS011;35254;47.990;-1.608;2023-05-10T00:44:39;5.20;;;1.35;;
49378;SDS011;35254;47.990;-1.608;2023-05-10T00:47:05;2.78;;;0.82;;
49378;SDS011;35254;47.990;-1.608;2023-05-10T00:49:30;5.95;;;1.58;;
49378;SDS011;35254;47.990;-1.608;2023-05-10T00:51:56;6.07;;;1.20;;
49378;SDS011;35254;47.990;-1.608;2023-05-10T00:54:22;3.25;;;0.77;;
49378;SDS011;35254;47.990;-1.608;2023-05-10T00:56:48;2.97;;;0.80;;
49378;SDS011;35254;47.990;-1.608;2023-05-10T00:59:17;3.58;;;1.08;;
49378;SDS011;35254;47.990;-1.608;2023-05-10T01:01:44;3.73;;;1.33;;
49378;SDS011;35254;47.990;-1.608;2023-05-10T01:04:11;3.65;;;1.10;;
49378;SDS011;35254;47.990;-1.608;2023-05-10T01:06:43;7.95;;;1.27;;
49378;SDS011;35254;47.990;-1.608;2023-05-10T01:09:08;3.63;;;0.98;;
49378;SDS011;35254;47.990;-1.608;2023-05-10T01:11:35;3.47;;;0.80;;
49378;SDS011;35254;47.990;-1.608;2023-05-10T01:14:02;5.63;;;1.35;;
49378;SDS011;35254;47.990;-1.608;2023-05-10T01:16:32;3.97;;;0.98;;
49378;SDS011;35254;47.990;-1.608;2023-05-10T01:19:03;5.35;;;0.98;;
49378;SDS011;35254;47.990;-1.608;2023-05-10T01:26:39;5.90;;;1.30;;
49378;SDS011;35254;47.990;-1.608;2023-05-10T01:34:54;4.85;;;1.20;;
49378;SDS011;35254;47.990;-1.608;2023-05-10T01:37:31;1.58;;;0.82;;
49378;SDS011;35254;47.990;-1.608;2023-05-10T01:42:47;8.07;;;1.15;;
49378;SDS011;35254;47.990;-1.608;2023-05-10T01:45:24;11.45;;;1.25;;
49378;SDS011;35254;47.990;-1.608;2023-05-10T01:48:02;10.35;;;1.13;;
49378;SDS011;35254;47.990;-1.608;2023-05-10T01:50:31;6.60;;;1.17;;
49378;SDS011;35254;47.990;-1.608;2023-05-10T01:53:00;1.55;;;0.88;;
49378;SDS011;35254;47.990;-1.608;2023-05-10T01:55:28;7.32;;;1.48;;
49378;SDS011;35254;47.990;-1.608;2023-05-10T01:58:04;6.57;;;1.10;;
49378;SDS011;35254;47.990;-1.608;2023-05-10T02:00:33;7.10;;;1.20;;
49378;SDS011;35254;47.990;-1.608;2023-05-10T02:03:01;3.28;;;1.20;;
49378;SDS011;35254;47.990;-1.608;2023-05-10T02:05:31;5.85;;;1.20;;
49378;SDS011;35254;47.990;-1.608;2023-05-10T02:07:58;4.05;;;1.70;;
49378;SDS011;35254;47.990;-1.608;2023-05-10T02:10:25;3.80;;;1.20;;
49378;SDS011;35254;47.990;-1.608;2023-05-10T02:12:52;5.45;;;2.25;;
49378;SDS011;35254;47.990;-1.608;2023-05-10T02:15:22;3.97;;;1.05;;
49378;SDS011;35254;47.990;-1.608;2023-05-10T02:17:50;2.97;;;1.05;;
49378;SDS011;35254;47.990;-1.608;2023-05-10T02:20:17;4.57;;;1.48;;
49378;SDS011;35254;47.990;-1.608;2023-05-10T02:22:45;3.92;;;1.23;;
49378;SDS011;35254;47.990;-1.608;2023-05-10T02:25:14;6.18;;;1.33;;
49378;SDS011;35254;47.990;-1.608;2023-05-10T02:27:42;5.32;;;1.30;;
49378;SDS011;35254;47.990;-1.608;2023-05-10T02:30:09;7.40;;;1.45;;
49378;SDS011;35254;47.990;-1.608;2023-05-10T02:32:36;8.77;;;2.50;;
49378;SDS011;35254;47.990;-1.608;2023-05-10T02:35:02;5.60;;;1.40;;
49378;SDS011;35254;47.990;-1.608;2023-05-10T02:37:29;7.22;;;1.30;;
49378;SDS011;35254;47.990;-1.608;2023-05-10T02:39:56;5.40;;;1.60;;
49378;SDS011;35254;47.990;-1.608;2023-05-10T02:42:27;3.50;;;1.40;;
49378;SDS011;35254;47.990;-1.608;2023-05-10T02:44:55;9.02;;;1.58;;
49378;SDS011;35254;47.990;-1.608;2023-05-10T02:47:25;5.28;;;1.60;;
49378;SDS011;35254;47.990;-1.608;2023-05-10T02:49:51;8.70;;;1.58;;
49378;SDS011;35254;47.990;-1.608;2023-05-10T02:52:19;5.25;;;1.42;;
49378;SDS011;35254;47.990;-1.608;2023-05-10T02:54:50;8.60;;;1.60;;
49378;SDS011;35254;47.990;-1.608;2023-05-10T02:57:22;5.25;;;1.40;;
49378;SDS011;35254;47.990;-1.608;2023-05-10T02:59:51;9.27;;;2.17;;
49378;SDS011;35254;47.990;-1.608;2023-05-10T03:02:17;5.97;;;1.45;;
49378;SDS011;35254;47.990;-1.608;2023-05-10T03:04:42;4.90;;;1.70;;
49378;SDS011;35254;47.990;-1.608;2023-05-10T03:07:08;8.57;;;1.63;;
49378;SDS011;35254;47.990;-1.608;2023-05-10T03:09:34;5.75;;;1.15;;
49378;SDS011;35254;47.990;-1.608;2023-05-10T03:12:02;4.47;;;1.33;;
49378;SDS011;35254;47.990;-1.608;2023-05-10T03:14:48;4.30;;;1.08;;
49378;SDS011;35254;47.990;-1.608;2023-05-10T03:17:31;4.50;;;1.35;;
49378;SDS011;35254;47.990;-1.608;2023-05-10T03:20:03;4.72;;;1.35;;
49378;SDS011;35254;47.990;-1.608;2023-05-10T03:22:34;7.13;;;1.85;;
49378;SDS011;35254;47.990;-1.608;2023-05-10T03:25:06;4.07;;;1.67;;
49378;SDS011;35254;47.990;-1.608;2023-05-10T03:27:36;9.13;;;1.50;;
49378;SDS011;35254;47.990;-1.608;2023-05-10T03:30:05;6.25;;;1.42;;
49378;SDS011;35254;47.990;-1.608;2023-05-10T03:32:33;4.80;;;1.27;;
49378;SDS011;35254;47.990;-1.608;2023-05-10T03:34:59;6.25;;;1.50;;
49378;SDS011;35254;47.990;-1.608;2023-05-10T03:37:25;4.13;;;1.35;;
49378;SDS011;35254;47.990;-1.608;2023-05-10T03:39:51;9.88;;;1.50;;
49378;SDS011;35254;47.990;-1.608;2023-05-10T03:42:16;9.93;;;1.40;;
49378;SDS011;35254;47.990;-1.608;2023-05-10T03:44:42;10.85;;;1.63;;
49378;SDS011;35254;47.990;-1.608;2023-05-10T03:47:08;5.25;;;1.20;;
49378;SDS011;35254;47.990;-1.608;2023-05-10T03:49:34;6.00;;;1.38;;
49378;SDS011;35254;47.990;-1.608;2023-05-10T03:51:59;7.32;;;1.52;;
49378;SDS011;35254;47.990;-1.608;2023-05-10T03:54:25;7.03;;;2.13;;
49378;SDS011;35254;47.990;-1.608;2023-05-10T03:56:51;8.50;;;1.55;;
49378;SDS011;35254;47.990;-1.608;2023-05-10T03:59:16;5.97;;;1.33;;
49378;SDS011;35254;47.990;-1.608;2023-05-10T04:01:42;6.28;;;1.50;;
49378;SDS011;35254;47.990;-1.608;2023-05-10T04:04:07;6.07;;;1.35;;
49378;SDS011;35254;47.990;-1.608;2023-05-10T04:06:33;6.95;;;1.50;;
49378;SDS011;35254;47.990;-1.608;2023-05-10T04:08:59;7.00;;;2.05;;
49378;SDS011;35254;47.990;-1.608;2023-05-10T04:11:28;6.05;;;1.17;;
49378;SDS011;35254;47.990;-1.608;2023-05-10T04:13:54;3.83;;;1.05;;
49378;SDS011;35254;47.990;-1.608;2023-05-10T04:16:20;5.82;;;1.40;;
49378;SDS011;35254;47.990;-1.608;2023-05-10T04:18:45;9.07;;;1.85;;
49378;SDS011;35254;47.990;-1.608;2023-05-10T04:21:11;3.30;;;1.30;;
49378;SDS011;35254;47.990;-1.608;2023-05-10T04:23:38;5.75;;;1.65;;
49378;SDS011;35254;47.990;-1.608;2023-05-10T04:26:04;5.72;;;1.70;;
49378;SDS011;35254;47.990;-1.608;2023-05-10T04:28:30;4.55;;;1.27;;
49378;SDS011;35254;47.990;-1.608;2023-05-10T04:31:05;5.10;;;1.85;;
49378;SDS011;35254;47.990;-1.608;2023-05-10T04:33:32;9.50;;;1.90;;
49378;SDS011;35254;47.990;-1.608;2023-05-10T04:35:58;5.65;;;1.23;;
49378;SDS011;35254;47.990;-1.608;2023-05-10T04:38:24;4.63;;;1.10;;
49378;SDS011;35254;47.990;-1.608;2023-05-10T04:40:50;7.03;;;1.52;;
49378;SDS011;35254;47.990;-1.608;2023-05-10T04:43:16;5.38;;;1.70;;
49378;SDS011;35254;47.990;-1.608;2023-05-10T04:45:41;9.50;;;1.50;;
49378;SDS011;35254;47.990;-1.608;2023-05-10T04:48:07;7.70;;;1.42;;
49378;SDS011;35254;47.990;-1.608;2023-05-10T04:50:32;6.43;;;2.05;;
49378;SDS011;35254;47.990;-1.608;2023-05-10T04:52:58;6.30;;;1.50;;
49378;SDS011;35254;47.990;-1.608;2023-05-10T04:55:24;3.42;;;1.10;;
49378;SDS011;35254;47.990;-1.608;2023-05-10T04:57:50;5.60;;;1.60;;
49378;SDS011;35254;47.990;-1.608;2023-05-10T05:00:15;4.63;;;1.30;;
49378;SDS011;35254;47.990;-1.608;2023-05-10T05:02:44;7.43;;;1.60;;
49378;SDS011;35254;47.990;-1.608;2023-05-10T05:05:11;5.50;;;1.45;;
49378;SDS011;35254;47.990;-1.608;2023-05-10T05:07:37;5.20;;;1.60;;
49378;SDS011;35254;47.990;-1.608;2023-05-10T05:10:04;6.43;;;1.38;;
49378;SDS011;35254;47.990;-1.608;2023-05-10T05:12:31;4.93;;;1.33;;
49378;SDS011;35254;47.990;-1.608;2023-05-10T05:14:56;7.00;;;1.30;;
49378;SDS011;35254;47.990;-1.608;2023-05-10T05:17:22;6.30;;;1.52;;
49378;SDS011;35254;47.990;-1.608;2023-05-10T05:19:47;5.40;;;1.70;;
49378;SDS011;35254;47.990;-1.608;2023-05-10T05:22:13;7.90;;;1.60;;
49378;SDS011;35254;47.990;-1.608;2023-05-10T05:24:39;6.13;;;1.40;;
49378;SDS011;35254;47.990;-1.608;2023-05-10T05:27:04;8.65;;;1.73;;
49378;SDS011;35254;47.990;-1.608;2023-05-10T05:29:30;7.45;;;1.95;;
49378;SDS011;35254;47.990;-1.608;2023-05-10T05:31:56;7.05;;;1.58;;
49378;SDS011;35254;47.990;-1.608;2023-05-10T05:34:22;9.30;;;1.73;;
49378;SDS011;35254;47.990;-1.608;2023-05-10T05:36:47;9.07;;;2.63;;
49378;SDS011;35254;47.990;-1.608;2023-05-10T05:39:13;3.63;;;1.33;;
49378;SDS011;35254;47.990;-1.608;2023-05-10T05:41:39;5.68;;;1.30;;
49378;SDS011;35254;47.990;-1.608;2023-05-10T05:44:04;6.97;;;1.77;;
49378;SDS011;35254;47.990;-1.608;2023-05-10T05:46:30;7.20;;;1.52;;
49378;SDS011;35254;47.990;-1.608;2023-05-10T05:48:56;3.60;;;1.02;;
49378;SDS011;35254;47.990;-1.608;2023-05-10T05:51:21;7.13;;;2.05;;
49378;SDS011;35254;47.990;-1.608;2023-05-10T05:53:47;4.18;;;1.38;;
49378;SDS011;35254;47.990;-1.608;2023-05-10T05:56:13;6.22;;;1.52;;
49378;SDS011;35254;47.990;-1.608;2023-05-10T05:58:38;6.80;;;1.30;;
49378;SDS011;35254;47.990;-1.608;2023-05-10T06:01:04;4.03;;;1.60;;
49378;SDS011;35254;47.990;-1.608;2023-05-10T06:03:30;5.35;;;1.58;;
49378;SDS011;35254;47.990;-1.608;2023-05-10T06:05:55;5.22;;;1.70;;
49378;SDS011;35254;47.990;-1.608;2023-05-10T06:08:21;6.32;;;1.60;;
49378;SDS011;35254;47.990;-1.608;2023-05-10T06:10:47;8.32;;;3.03;;
49378;SDS011;35254;47.990;-1.608;2023-05-10T06:13:13;6.80;;;1.27;;
49378;SDS011;35254;47.990;-1.608;2023-05-10T06:15:38;5.95;;;1.77;;
49378;SDS011;35254;47.990;-1.608;2023-05-10T06:18:04;9.55;;;1.50;;
49378;SDS011;35254;47.990;-1.608;2023-05-10T06:20:30;4.85;;;1.67;;
49378;SDS011;35254;47.990;-1.608;2023-05-10T06:22:56;9.15;;;1.75;;
49378;SDS011;35254;47.990;-1.608;2023-05-10T06:25:22;7.00;;;1.35;;
49378;SDS011;35254;47.990;-1.608;2023-05-10T06:27:48;5.53;;;1.63;;
49378;SDS011;35254;47.990;-1.608;2023-05-10T06:30:14;8.98;;;1.63;;
49378;SDS011;35254;47.990;-1.608;2023-05-10T06:32:40;6.57;;;2.80;;
49378;SDS011;35254;47.990;-1.608;2023-05-10T06:35:06;7.20;;;1.70;;
49378;SDS011;35254;47.990;-1.608;2023-05-10T06:37:32;6.90;;;1.52;;
49378;SDS011;35254;47.990;-1.608;2023-05-10T06:39:59;4.68;;;1.42;;
49378;SDS011;35254;47.990;-1.608;2023-05-10T06:42:25;4.53;;;1.42;;
49378;SDS011;35254;47.990;-1.608;2023-05-10T06:44:52;6.53;;;1.67;;
49378;SDS011;35254;47.990;-1.608;2023-05-10T06:47:18;4.93;;;1.30;;
49378;SDS011;35254;47.990;-1.608;2023-05-10T06:49:43;4.55;;;1.08;;
49378;SDS011;35254;47.990;-1.608;2023-05-10T06:52:09;3.58;;;1.30;;
49378;SDS011;35254;47.990;-1.608;2023-05-10T06:54:34;7.10;;;1.83;;
49378;SDS011;35254;47.990;-1.608;2023-05-10T06:57:00;6.65;;;1.95;;
49378;SDS011;35254;47.990;-1.608;2023-05-10T06:59:27;6.32;;;1.70;;
49378;SDS011;35254;47.990;-1.608;2023-05-10T07:01:53;7.03;;;1.38;;
49378;SDS011;35254;47.990;-1.608;2023-05-10T07:04:19;6.65;;;1.65;;
49378;SDS011;35254;47.990;-1.608;2023-05-10T07:06:44;5.50;;;1.58;;
49378;SDS011;35254;47.990;-1.608;2023-05-10T07:09:11;9.77;;;2.22;;
49378;SDS011;35254;47.990;-1.608;2023-05-10T07:11:38;19.33;;;2.72;;
49378;SDS011;35254;47.990;-1.608;2023-05-10T07:14:04;22.52;;;4.80;;
49378;SDS011;35254;47.990;-1.608;2023-05-10T07:16:30;13.00;;;2.20;;
49378;SDS011;35254;47.990;-1.608;2023-05-10T07:18:55;9.48;;;1.88;;
49378;SDS011;35254;47.990;-1.608;2023-05-10T07:21:21;9.18;;;2.20;;
49378;SDS011;35254;47.990;-1.608;2023-05-10T07:23:49;11.00;;;2.10;;
49378;SDS011;35254;47.990;-1.608;2023-05-10T07:26:15;10.40;;;2.35;;
49378;SDS011;35254;47.990;-1.608;2023-05-10T07:28:41;8.90;;;1.88;;
49378;SDS011;35254;47.990;-1.608;2023-05-10T07:31:07;9.23;;;2.08;;
49378;SDS011;35254;47.990;-1.608;2023-05-10T07:33:32;6.32;;;1.80;;
49378;SDS011;35254;47.990;-1.608;2023-05-10T07:35:58;8.88;;;1.88;;
49378;SDS011;35254;47.990;-1.608;2023-05-10T07:38:24;9.55;;;2.88;;
49378;SDS011;35254;47.990;-1.608;2023-05-10T07:40:49;12.35;;;2.85;;
49378;SDS011;35254;47.990;-1.608;2023-05-10T07:43:15;11.23;;;2.95;;
49378;SDS011;35254;47.990;-1.608;2023-05-10T07:45:40;10.52;;;2.35;;
49378;SDS011;35254;47.990;-1.608;2023-05-10T07:48:06;16.73;;;2.95;;
49378;SDS011;35254;47.990;-1.608;2023-05-10T07:50:32;12.57;;;3.33;;
49378;SDS011;35254;47.990;-1.608;2023-05-10T07:52:58;15.68;;;3.67;;
49378;SDS011;35254;47.990;-1.608;2023-05-10T07:55:24;12.68;;;2.60;;
49378;SDS011;35254;47.990;-1.608;2023-05-10T07:57:50;7.80;;;1.92;;
49378;SDS011;35254;47.990;-1.608;2023-05-10T08:00:18;6.43;;;1.50;;
49378;SDS011;35254;47.990;-1.608;2023-05-10T08:02:46;13.00;;;2.33;;
49378;SDS011;35254;47.990;-1.608;2023-05-10T08:05:12;8.43;;;1.90;;
49378;SDS011;35254;47.990;-1.608;2023-05-10T08:07:38;13.65;;;2.17;;
49378;SDS011;35254;47.990;-1.608;2023-05-10T08:10:04;9.13;;;1.88;;
49378;SDS011;35254;47.990;-1.608;2023-05-10T08:12:30;10.27;;;2.35;;
49378;SDS011;35254;47.990;-1.608;2023-05-10T08:14:56;11.05;;;2.40;;
49378;SDS011;35254;47.990;-1.608;2023-05-10T08:17:22;9.05;;;2.78;;
49378;SDS011;35254;47.990;-1.608;2023-05-10T08:19:47;8.38;;;1.83;;
49378;SDS011;35254;47.990;-1.608;2023-05-10T08:22:13;10.77;;;2.08;;
49378;SDS011;35254;47.990;-1.608;2023-05-10T08:24:38;10.80;;;2.33;;
49378;SDS011;35254;47.990;-1.608;2023-05-10T08:27:05;5.95;;;1.60;;
49378;SDS011;35254;47.990;-1.608;2023-05-10T08:29:30;11.23;;;3.03;;
49378;SDS011;35254;47.990;-1.608;2023-05-10T08:31:56;9.00;;;2.08;;
49378;SDS011;35254;47.990;-1.608;2023-05-10T08:34:22;8.80;;;1.80;;
49378;SDS011;35254;47.990;-1.608;2023-05-10T08:36:48;7.13;;;1.50;;
49378;SDS011;35254;47.990;-1.608;2023-05-10T08:39:13;6.45;;;1.50;;
49378;SDS011;35254;47.990;-1.608;2023-05-10T08:41:39;7.45;;;2.80;;
49378;SDS011;35254;47.990;-1.608;2023-05-10T08:44:08;12.65;;;1.83;;
49378;SDS011;35254;47.990;-1.608;2023-05-10T08:46:34;8.55;;;2.10;;
49378;SDS011;35254;47.990;-1.608;2023-05-10T08:49:04;4.90;;;1.20;;
49378;SDS011;35254;47.990;-1.608;2023-05-10T08:51:39;9.60;;;1.60;;
49378;SDS011;35254;47.990;-1.608;2023-05-10T08:54:07;11.43;;;2.00;;
49378;SDS011;35254;47.990;-1.608;2023-05-10T08:56:33;7.32;;;1.67;;
49378;SDS011;35254;47.990;-1.608;2023-05-10T08:58:59;6.03;;;2.17;;
49378;SDS011;35254;47.990;-1.608;2023-05-10T09:01:25;5.80;;;1.73;;
49378;SDS011;35254;47.990;-1.608;2023-05-10T09:03:51;3.83;;;1.30;;
49378;SDS011;35254;47.990;-1.608;2023-05-10T09:06:17;6.43;;;1.50;;
49378;SDS011;35254;47.990;-1.608;2023-05-10T09:08:43;8.73;;;1.70;;
49378;SDS011;35254;47.990;-1.608;2023-05-10T09:11:11;7.38;;;1.50;;
49378;SDS011;35254;47.990;-1.608;2023-05-10T09:13:37;11.93;;;2.00;;
49378;SDS011;35254;47.990;-1.608;2023-05-10T09:16:03;7.75;;;1.60;;
49378;SDS011;35254;47.990;-1.608;2023-05-10T09:18:29;10.05;;;1.65;;
49378;SDS011;35254;47.990;-1.608;2023-05-10T09:20:55;3.28;;;1.45;;
49378;SDS011;35254;47.990;-1.608;2023-05-10T09:23:21;5.63;;;1.60;;
49378;SDS011;35254;47.990;-1.608;2023-05-10T09:25:48;3.60;;;1.52;;
49378;SDS011;35254;47.990;-1.608;2023-05-10T09:28:31;5.22;;;1.38;;
49378;SDS011;35254;47.990;-1.608;2023-05-10T09:30:57;7.18;;;1.25;;
49378;SDS011;35254;47.990;-1.608;2023-05-10T09:33:23;3.85;;;1.35;;
49378;SDS011;35254;47.990;-1.608;2023-05-10T09:35:49;9.13;;;2.00;;
49378;SDS011;35254;47.990;-1.608;2023-05-10T09:38:17;7.05;;;1.50;;
49378;SDS011;35254;47.990;-1.608;2023-05-10T09:40:42;4.82;;;1.20;;
49378;SDS011;35254;47.990;-1.608;2023-05-10T09:43:20;10.57;;;1.77;;
49378;SDS011;35254;47.990;-1.608;2023-05-10T09:45:45;5.65;;;2.20;;
49378;SDS011;35254;47.990;-1.608;2023-05-10T09:48:14;7.50;;;1.33;;
49378;SDS011;35254;47.990;-1.608;2023-05-10T09:50:40;3.63;;;1.30;;
49378;SDS011;35254;47.990;-1.608;2023-05-10T09:53:06;5.50;;;1.00;;
49378;SDS011;35254;47.990;-1.608;2023-05-10T09:58:05;5.20;;;1.27;;
49378;SDS011;35254;47.990;-1.608;2023-05-10T10:00:45;4.85;;;1.60;;
49378;SDS011;35254;47.990;-1.608;2023-05-10T10:03:13;2.28;;;0.90;;
49378;SDS011;35254;47.990;-1.608;2023-05-10T10:05:40;3.58;;;1.35;;
49378;SDS011;35254;47.990;-1.608;2023-05-10T10:08:08;2.58;;;1.05;;
49378;SDS011;35254;47.990;-1.608;2023-05-10T10:10:34;6.22;;;1.35;;
49378;SDS011;35254;47.990;-1.608;2023-05-10T10:13:00;7.32;;;2.38;;
49378;SDS011;35254;47.990;-1.608;2023-05-10T10:15:26;4.82;;;1.95;;
49378;SDS011;35254;47.990;-1.608;2023-05-10T10:17:52;5.45;;;1.63;;
49378;SDS011;35254;47.990;-1.608;2023-05-10T10:20:19;9.43;;;1.60;;
49378;SDS011;35254;47.990;-1.608;2023-05-10T10:22:47;8.20;;;1.23;;
49378;SDS011;35254;47.990;-1.608;2023-05-10T10:25:16;5.13;;;1.08;;
49378;SDS011;35254;47.990;-1.608;2023-05-10T10:35:43;4.47;;;1.23;;
49378;SDS011;35254;47.990;-1.608;2023-05-10T10:38:12;5.50;;;1.17;;
49378;SDS011;35254;47.990;-1.608;2023-05-10T10:40:38;9.70;;;2.22;;
49378;SDS011;35254;47.990;-1.608;2023-05-10T10:48:43;5.72;;;1.10;;
49378;SDS011;35254;47.990;-1.608;2023-05-10T10:51:13;3.90;;;1.38;;
49378;SDS011;35254;47.990;-1.608;2023-05-10T10:53:39;5.97;;;1.67;;
49378;SDS011;35254;47.990;-1.608;2023-05-10T10:58:32;6.43;;;1.15;;
49378;SDS011;35254;47.990;-1.608;2023-05-10T11:01:09;2.08;;;1.23;;
49378;SDS011;35254;47.990;-1.608;2023-05-10T11:03:39;4.72;;;1.67;;
49378;SDS011;35254;47.990;-1.608;2023-05-10T11:06:05;4.40;;;1.13;;
49378;SDS011;35254;47.990;-1.608;2023-05-10T11:08:33;4.80;;;1.02;;
49378;SDS011;35254;47.990;-1.608;2023-05-10T11:11:06;21.60;;;1.95;;
49378;SDS011;35254;47.990;-1.608;2023-05-10T11:18:58;2.88;;;1.25;;
49378;SDS011;35254;47.990;-1.608;2023-05-10T11:21:29;9.05;;;1.30;;
49378;SDS011;35254;47.990;-1.608;2023-05-10T11:23:56;3.05;;;0.95;;
49378;SDS011;35254;47.990;-1.608;2023-05-10T11:26:31;6.00;;;1.23;;
49378;SDS011;35254;47.990;-1.608;2023-05-10T11:28:59;5.38;;;1.27;;
49378;SDS011;35254;47.990;-1.608;2023-05-10T11:31:27;6.32;;;1.20;;
49378;SDS011;35254;47.990;-1.608;2023-05-10T11:33:53;3.75;;;1.00;;
49378;SDS011;35254;47.990;-1.608;2023-05-10T11:36:21;3.92;;;1.65;;
49378;SDS011;35254;47.990;-1.608;2023-05-10T11:38:57;6.22;;;1.52;;
49378;SDS011;35254;47.990;-1.608;2023-05-10T11:41:23;4.55;;;1.10;;
49378;SDS011;35254;47.990;-1.608;2023-05-10T11:43:49;3.47;;;1.65;;
49378;SDS011;35254;47.990;-1.608;2023-05-10T11:46:17;4.95;;;1.75;;
49378;SDS011;35254;47.990;-1.608;2023-05-10T11:48:45;6.20;;;1.75;;
49378;SDS011;35254;47.990;-1.608;2023-05-10T11:51:19;6.10;;;1.67;;
49378;SDS011;35254;47.990;-1.608;2023-05-10T11:53:49;7.22;;;1.35;;
49378;SDS011;35254;47.990;-1.608;2023-05-10T11:58:45;4.95;;;1.27;;
49378;SDS011;35254;47.990;-1.608;2023-05-10T12:01:21;9.15;;;1.52;;
49378;SDS011;35254;47.990;-1.608;2023-05-10T12:03:49;6.20;;;1.55;;
49378;SDS011;35254;47.990;-1.608;2023-05-10T12:06:17;1.73;;;0.98;;
49378;SDS011;35254;47.990;-1.608;2023-05-10T12:08:44;8.98;;;2.35;;
49378;SDS011;35254;47.990;-1.608;2023-05-10T12:11:11;3.90;;;1.00;;
49378;SDS011;35254;47.990;-1.608;2023-05-10T12:13:41;5.93;;;1.13;;
49378;SDS011;35254;47.990;-1.608;2023-05-10T12:16:17;6.05;;;1.90;;
49378;SDS011;35254;47.990;-1.608;2023-05-10T12:18:51;4.35;;;0.95;;
49378;SDS011;35254;47.990;-1.608;2023-05-10T12:21:18;1.60;;;0.77;;
49378;SDS011;35254;47.990;-1.608;2023-05-10T12:23:45;2.65;;;0.93;;
49378;SDS011;35254;47.990;-1.608;2023-05-10T12:26:12;2.42;;;0.93;;
49378;SDS011;35254;47.990;-1.608;2023-05-10T12:28:38;2.67;;;0.70;;
49378;SDS011;35254;47.990;-1.608;2023-05-10T12:31:07;1.92;;;1.15;;
49378;SDS011;35254;47.990;-1.608;2023-05-10T12:33:36;2.85;;;0.80;;
49378;SDS011;35254;47.990;-1.608;2023-05-10T12:36:10;3.55;;;1.00;;
49378;SDS011;35254;47.990;-1.608;2023-05-10T12:38:38;2.92;;;1.10;;
49378;SDS011;35254;47.990;-1.608;2023-05-10T12:41:05;5.68;;;0.70;;
49378;SDS011;35254;47.990;-1.608;2023-05-10T12:43:32;2.08;;;0.80;;
49378;SDS011;35254;47.990;-1.608;2023-05-10T12:46:04;6.15;;;0.95;;
49378;SDS011;35254;47.990;-1.608;2023-05-10T12:48:30;3.03;;;0.50;;
49378;SDS011;35254;47.990;-1.608;2023-05-10T12:50:56;3.85;;;0.65;;
49378;SDS011;35254;47.990;-1.608;2023-05-10T12:53:22;3.35;;;0.73;;
49378;SDS011;35254;47.990;-1.608;2023-05-10T12:55:47;2.92;;;0.90;;
49378;SDS011;35254;47.990;-1.608;2023-05-10T12:58:13;6.40;;;1.30;;
49378;SDS011;35254;47.990;-1.608;2023-05-10T13:00:39;3.42;;;0.98;;
49378;SDS011;35254;47.990;-1.608;2023-05-10T13:03:05;1.55;;;0.60;;
49378;SDS011;35254;47.990;-1.608;2023-05-10T13:05:33;1.70;;;0.80;;
49378;SDS011;35254;47.990;-1.608;2023-05-10T13:07:59;1.85;;;0.65;;
49378;SDS011;35254;47.990;-1.608;2023-05-10T13:10:25;4.03;;;1.05;;
49378;SDS011;35254;47.990;-1.608;2023-05-10T13:12:50;2.42;;;0.57;;
49378;SDS011;35254;47.990;-1.608;2023-05-10T13:15:16;2.50;;;0.73;;
49378;SDS011;35254;47.990;-1.608;2023-05-10T13:17:42;3.08;;;1.15;;
49378;SDS011;35254;47.990;-1.608;2023-05-10T13:20:08;2.30;;;0.70;;
49378;SDS011;35254;47.990;-1.608;2023-05-10T13:22:34;5.43;;;0.60;;
49378;SDS011;35254;47.990;-1.608;2023-05-10T13:25:00;4.18;;;0.70;;
49378;SDS011;35254;47.990;-1.608;2023-05-10T13:27:26;2.42;;;1.00;;
49378;SDS011;35254;47.990;-1.608;2023-05-10T13:29:52;6.57;;;0.88;;
49378;SDS011;35254;47.990;-1.608;2023-05-10T13:32:18;3.75;;;0.80;;
49378;SDS011;35254;47.990;-1.608;2023-05-10T13:34:43;7.07;;;1.35;;
49378;SDS011;35254;47.990;-1.608;2023-05-10T13:37:09;4.60;;;0.90;;
49378;SDS011;35254;47.990;-1.608;2023-05-10T13:39:35;6.38;;;1.10;;
49378;SDS011;35254;47.990;-1.608;2023-05-10T13:42:02;8.45;;;1.30;;
49378;SDS011;35254;47.990;-1.608;2023-05-10T13:44:28;9.90;;;0.98;;
49378;SDS011;35254;47.990;-1.608;2023-05-10T13:46:54;1.30;;;0.55;;
49378;SDS011;35254;47.990;-1.608;2023-05-10T13:49:21;2.97;;;0.70;;
49378;SDS011;35254;47.990;-1.608;2023-05-10T13:51:47;4.13;;;0.68;;
49378;SDS011;35254;47.990;-1.608;2023-05-10T13:54:13;7.05;;;2.00;;
49378;SDS011;35254;47.990;-1.608;2023-05-10T13:56:38;1.95;;;0.57;;
49378;SDS011;35254;47.990;-1.608;2023-05-10T13:59:06;1.90;;;0.88;;
49378;SDS011;35254;47.990;-1.608;2023-05-10T14:01:32;2.95;;;0.75;;
49378;SDS011;35254;47.990;-1.608;2023-05-10T14:03:59;0.85;;;0.47;;
49378;SDS011;35254;47.990;-1.608;2023-05-10T14:06:25;2.95;;;0.60;;
49378;SDS011;35254;47.990;-1.608;2023-05-10T14:08:52;2.10;;;0.60;;
49378;SDS011;35254;47.990;-1.608;2023-05-10T14:11:18;3.47;;;0.85;;
49378;SDS011;35254;47.990;-1.608;2023-05-10T14:13:44;3.65;;;0.77;;
49378;SDS011;35254;47.990;-1.608;2023-05-10T14:16:10;2.40;;;0.57;;
49378;SDS011;35254;47.990;-1.608;2023-05-10T14:18:37;2.97;;;0.57;;
49378;SDS011;35254;47.990;-1.608;2023-05-10T14:21:03;1.48;;;0.47;;
49378;SDS011;35254;47.990;-1.608;2023-05-10T14:23:29;1.15;;;0.65;;
49378;SDS011;35254;47.990;-1.608;2023-05-10T14:25:55;1.30;;;0.50;;
49378;SDS011;35254;47.990;-1.608;2023-05-10T14:28:21;4.50;;;0.85;;
49378;SDS011;35254;47.990;-1.608;2023-05-10T14:30:48;2.03;;;0.80;;
49378;SDS011;35254;47.990;-1.608;2023-05-10T14:33:16;3.03;;;0.93;;
49378;SDS011;35254;47.990;-1.608;2023-05-10T14:35:42;1.05;;;0.60;;
49378;SDS011;35254;47.990;-1.608;2023-05-10T14:38:07;3.42;;;1.10;;
49378;SDS011;35254;47.990;-1.608;2023-05-10T14:40:33;2.00;;;0.50;;
49378;SDS011;35254;47.990;-1.608;2023-05-10T14:42:59;2.20;;;0.73;;
49378;SDS011;35254;47.990;-1.608;2023-05-10T14:45:25;6.15;;;0.75;;
49378;SDS011;35254;47.990;-1.608;2023-05-10T14:47:51;5.38;;;0.52;;
49378;SDS011;35254;47.990;-1.608;2023-05-10T14:50:17;6.35;;;0.88;;
49378;SDS011;35254;47.990;-1.608;2023-05-10T14:52:43;6.05;;;1.10;;
49378;SDS011;35254;47.990;-1.608;2023-05-10T14:55:09;3.67;;;0.80;;
49378;SDS011;35254;47.990;-1.608;2023-05-10T14:57:38;5.22;;;0.85;;
49378;SDS011;35254;47.990;-1.608;2023-05-10T15:00:04;8.00;;;0.85;;
49378;SDS011;35254;47.990;-1.608;2023-05-10T15:02:31;4.25;;;0.70;;
49378;SDS011;35254;47.990;-1.608;2023-05-10T15:04:58;3.28;;;0.68;;
49378;SDS011;35254;47.990;-1.608;2023-05-10T15:07:24;5.78;;;0.80;;
49378;SDS011;35254;47.990;-1.608;2023-05-10T15:09:50;5.78;;;0.90;;
49378;SDS011;35254;47.990;-1.608;2023-05-10T15:12:16;10.13;;;1.77;;